Time;durP1;ratioP1;P1;durP2;ratioP2;P2;SDS_P1;SDS_P2;PMS_P1;PMS_P2;Temp;Humidity;BMP_temperature;BMP_pressure;BME280_temperature;BME280_humidity;BME280_pressure;Samples;Min_cycle;Max_cycle;Signal;HPM_P1;HPM_P2
2022/06/18 00:01:14;;;;;;;3.17;1.35;;;;;;;20.79;77.69;100886.00;8455809;27;20032;-63
2022/06/18 00:05:19;;;;;;;3.40;1.40;;;;;;;20.82;77.13;100880.13;8458235;27;20384;-63
2022/06/18 00:09:22;;;;;;;6.97;1.70;;;;;;;20.81;77.03;100875.69;8482718;27;20449;-62
2022/06/18 00:13:42;;;;;;;2.70;1.57;;;;;;;20.77;77.27;100882.59;8476492;27;20059;-63
2022/06/18 00:17:43;;;;;;;4.28;1.80;;;;;;;20.75;77.32;100872.84;8490898;27;20042;-63
2022/06/18 00:21:44;;;;;;;3.67;1.60;;;;;;;20.72;77.41;100873.25;8489076;27;20088;-63
2022/06/18 00:25:47;;;;;;;3.83;1.88;;;;;;;20.68;77.84;100869.19;8483564;27;20043;-63
2022/06/18 00:29:50;;;;;;;2.40;1.50;;;;;;;20.62;78.09;100865.31;8455530;27;20424;-63
2022/06/18 00:33:50;;;;;;;5.13;1.88;;;;;;;20.54;78.21;100875.59;8455895;27;20036;-63
2022/06/18 00:37:56;;;;;;;3.95;1.55;;;;;;;20.37;78.91;100864.00;8457884;28;20050;-63
2022/06/18 00:42:01;;;;;;;2.17;1.60;;;;;;;20.35;79.12;100866.13;8457873;28;20476;-63
2022/06/18 00:46:10;;;;;;;2.67;1.58;;;;;;;20.38;78.81;100859.38;8501008;27;20037;-63
2022/06/18 00:50:27;;;;;;;2.47;1.50;;;;;;;20.42;78.44;100866.19;8518780;27;20083;-63
2022/06/18 00:54:36;;;;;;;3.55;1.48;;;;;;;20.49;78.05;100850.63;8490588;27;20035;-63
2022/06/18 00:58:46;;;;;;;3.92;1.90;;;;;;;20.46;78.13;100851.03;8491180;27;20039;-63
2022/06/18 01:02:49;;;;;;;3.22;1.85;;;;;;;20.46;78.22;100862.00;8516619;27;20118;-63
2022/06/18 01:06:56;;;;;;;5.20;1.67;;;;;;;20.47;78.19;100860.97;8510750;27;20039;-63
2022/06/18 01:11:00;;;;;;;2.97;2.13;;;;;;;20.43;78.11;100851.41;8490456;27;20043;-63
2022/06/18 01:15:07;;;;;;;4.80;1.80;;;;;;;20.48;77.96;100860.75;8515028;27;20031;-63
2022/06/18 01:19:18;;;;;;;2.40;1.38;;;;;;;20.44;77.99;100853.97;8494386;27;20054;-63
2022/06/18 01:23:47;;;;;;;3.20;1.70;;;;;;;20.36;78.29;100853.22;8504110;27;20023;-63
2022/06/18 01:27:48;;;;;;;3.45;1.95;;;;;;;20.34;78.88;100855.34;8519497;27;20060;-63
2022/06/18 01:31:50;;;;;;;6.15;2.38;;;;;;;20.35;78.52;100840.53;8522608;27;20087;-63
2022/06/18 01:35:53;;;;;;;2.00;1.55;;;;;;;20.41;78.11;100839.75;8523382;27;20045;-63
2022/06/18 01:39:54;;;;;;;6.88;1.92;;;;;;;20.28;78.50;100842.38;8522361;27;20066;-63
2022/06/18 01:43:57;;;;;;;5.63;1.80;;;;;;;20.16;79.59;100838.44;8521839;27;20043;-63
2022/06/18 01:48:07;;;;;;;3.70;1.70;;;;;;;20.17;79.42;100834.66;8522639;27;20034;-63
2022/06/18 01:52:09;;;;;;;2.83;1.80;;;;;;;20.21;79.06;100824.97;8516868;27;20114;-63
2022/06/18 01:56:16;;;;;;;6.22;2.00;;;;;;;20.23;79.11;100828.38;8520824;27;20075;-63
2022/06/18 02:00:21;;;;;;;2.53;1.75;;;;;;;20.21;78.89;100813.97;8522258;27;20031;-63
2022/06/18 02:04:25;;;;;;;9.63;2.55;;;;;;;20.20;78.85;100817.78;8516359;27;20078;-63
2022/06/18 02:08:26;;;;;;;5.35;1.85;;;;;;;20.08;79.10;100805.56;8490330;27;20434;-63
2022/06/18 02:12:32;;;;;;;2.92;1.70;;;;;;;20.09;79.56;100810.00;8495143;27;20107;-63
2022/06/18 02:16:38;;;;;;;2.05;1.75;;;;;;;20.13;80.25;100808.63;8522063;27;20148;-63
2022/06/18 02:20:44;;;;;;;4.55;1.90;;;;;;;20.00;80.25;100806.56;8520754;27;20035;-63
2022/06/18 02:24:45;;;;;;;2.83;1.77;;;;;;;19.71;81.58;100800.28;8522250;27;20039;-63
2022/06/18 02:28:46;;;;;;;2.67;2.00;;;;;;;19.64;82.08;100804.84;8521813;27;20482;-63
2022/06/18 02:32:55;;;;;;;3.30;2.25;;;;;;;19.61;82.49;100806.06;8526453;27;20272;-63
2022/06/18 02:36:58;;;;;;;4.18;1.98;;;;;;;19.37;84.24;100804.50;8528266;27;20482;-63
2022/06/18 02:40:59;;;;;;;3.60;2.13;;;;;;;19.19;86.11;100804.00;8477723;27;20027;-63
2022/06/18 02:45:04;;;;;;;3.70;2.15;;;;;;;19.50;83.51;100806.56;8495284;27;20043;-63
2022/06/18 02:49:07;;;;;;;4.10;2.00;;;;;;;19.72;82.04;100802.00;8496921;27;20533;-63
2022/06/18 02:53:11;;;;;;;4.53;1.95;;;;;;;19.81;81.18;100800.84;8522149;27;20471;-63
2022/06/18 02:57:23;;;;;;;4.80;2.43;;;;;;;19.65;82.47;100801.06;8504627;27;20387;-63
2022/06/18 03:01:26;;;;;;;4.22;2.00;;;;;;;19.52;82.94;100802.59;8495061;27;20459;-63
2022/06/18 03:05:27;;;;;;;3.47;1.88;;;;;;;19.43;83.56;100809.22;8491112;27;20035;-63
2022/06/18 03:09:28;;;;;;;4.25;2.13;;;;;;;19.46;83.46;100808.84;8522843;27;20080;-63
2022/06/18 03:13:28;;;;;;;3.10;2.00;;;;;;;19.51;83.11;100813.75;8515473;27;20484;-63
2022/06/18 03:17:30;;;;;;;5.57;2.15;;;;;;;19.67;81.88;100799.00;8493130;27;20292;-63
2022/06/18 03:21:36;;;;;;;4.88;1.80;;;;;;;19.59;82.39;100807.31;8512967;27;20488;-63
2022/06/18 03:25:36;;;;;;;2.30;2.10;;;;;;;19.72;81.82;100805.59;8497569;27;20135;-63
2022/06/18 03:29:36;;;;;;;4.80;1.80;;;;;;;19.74;81.33;100805.41;8493700;27;20034;-63
2022/06/18 03:33:37;;;;;;;5.90;2.10;;;;;;;19.83;80.79;100801.50;8493939;27;20356;-64
2022/06/18 03:37:37;;;;;;;4.25;1.90;;;;;;;19.94;80.27;100795.50;8493676;27;20038;-63
2022/06/18 03:41:37;;;;;;;3.47;1.65;;;;;;;19.98;80.01;100796.81;8493683;27;20054;-63
2022/06/18 03:45:42;;;;;;;3.97;1.90;;;;;;;19.83;81.02;100805.09;8507124;27;20047;-63
2022/06/18 03:49:42;;;;;;;4.22;1.77;;;;;;;19.77;81.60;100796.78;8503834;27;20723;-63
2022/06/18 03:53:44;;;;;;;4.15;2.05;;;;;;;19.67;82.32;100809.97;8521209;27;20034;-63
2022/06/18 03:57:44;;;;;;;3.50;1.92;;;;;;;19.49;83.53;100813.94;8525593;27;20034;-63
2022/06/18 04:01:44;;;;;;;4.68;2.17;;;;;;;19.37;83.97;100809.97;8525094;27;20611;-63
2022/06/18 04:05:45;;;;;;;3.97;2.60;;;;;;;19.44;84.62;100808.19;8525889;27;20586;-63
2022/06/18 04:09:46;;;;;;;5.53;2.33;;;;;;;19.55;84.17;100811.50;8525811;27;20042;-63
2022/06/18 04:13:46;;;;;;;3.60;2.10;;;;;;;19.66;84.05;100809.09;8514786;27;20035;-63
2022/06/18 04:17:47;;;;;;;5.70;2.05;;;;;;;19.69;84.39;100802.38;8524809;27;20084;-63
2022/06/18 04:21:47;;;;;;;4.57;1.90;;;;;;;19.71;84.11;100806.66;8511856;27;20031;-63
2022/06/18 04:25:48;;;;;;;7.23;2.50;;;;;;;19.69;84.40;100816.09;8490401;27;20042;-63
2022/06/18 04:29:48;;;;;;;4.15;2.13;;;;;;;19.79;83.69;100811.16;8496796;27;21784;-63
2022/06/18 04:33:48;;;;;;;4.57;2.03;;;;;;;19.96;83.02;100805.25;8521291;27;20039;-63
2022/06/18 04:37:49;;;;;;;4.20;2.28;;;;;;;20.27;81.61;100802.22;8496597;27;20042;-63
2022/06/18 04:41:50;;;;;;;4.30;2.03;;;;;;;20.49;80.82;100809.44;8472293;27;20517;-63
2022/06/18 04:45:51;;;;;;;5.55;2.40;;;;;;;20.74;80.00;100811.53;8491777;27;20110;-63
2022/06/18 04:49:52;;;;;;;6.13;2.13;;;;;;;20.99;79.15;100803.72;8500944;27;20037;-63
2022/06/18 04:53:54;;;;;;;5.18;2.42;;;;;;;21.13;79.48;100802.75;8493206;27;20042;-63
2022/06/18 04:57:55;;;;;;;4.68;2.28;;;;;;;21.19;79.61;100783.56;8490908;27;20043;-63
2022/06/18 05:01:59;;;;;;;11.38;2.38;;;;;;;21.39;80.11;100783.66;8489589;27;20035;-63
2022/06/18 05:06:00;;;;;;;7.03;2.50;;;;;;;21.63;79.15;100787.78;8501848;27;20082;-63
2022/06/18 05:10:01;;;;;;;4.57;2.30;;;;;;;21.76;79.38;100779.63;8523593;27;20043;-65
2022/06/18 05:14:01;;;;;;;6.47;2.50;;;;;;;21.89;79.09;100787.94;8508358;27;20275;-64
2022/06/18 05:18:01;;;;;;;6.27;2.23;;;;;;;21.98;77.90;100779.25;8490490;27;20505;-63
2022/06/18 05:22:02;;;;;;;5.63;2.40;;;;;;;22.13;79.70;100773.56;8508924;27;20628;-63
2022/06/18 05:26:05;;;;;;;6.88;2.25;;;;;;;22.27;79.02;100784.44;8503245;27;20054;-63
2022/06/18 05:30:10;;;;;;;2.42;2.13;;;;;;;22.66;78.87;100773.44;8490258;27;20480;-63
2022/06/18 05:34:10;;;;;;;3.05;2.08;;;;;;;22.95;78.20;100778.50;8490380;27;20031;-63
2022/06/18 05:38:19;;;;;;;5.30;2.20;;;;;;;23.12;77.24;100768.72;8489141;27;20103;-63
2022/06/18 05:42:19;;;;;;;5.38;2.30;;;;;;;23.39;76.73;100772.28;8490528;27;20023;-63
2022/06/18 05:46:19;;;;;;;4.22;2.10;;;;;;;23.47;77.16;100771.19;8490248;27;20361;-63
2022/06/18 05:50:20;;;;;;;5.70;2.07;;;;;;;23.81;77.67;100768.91;8501009;27;20039;-63
2022/06/18 05:54:20;;;;;;;3.80;2.10;;;;;;;23.98;77.75;100763.75;8522410;27;20041;-63
2022/06/18 05:58:21;;;;;;;9.07;2.33;;;;;;;24.31;77.28;100756.09;8520850;27;20589;-63
2022/06/18 06:02:22;;;;;;;13.60;2.23;;;;;;;24.64;76.80;100765.00;8521847;27;20260;-63
2022/06/18 06:06:23;;;;;;;5.65;2.13;;;;;;;24.81;75.38;100761.47;8523579;27;20427;-63
2022/06/18 06:11:28;;;;;;;6.20;2.27;;;;;;;25.26;73.30;100763.97;8504945;27;20052;-63
2022/06/18 06:14:47;;;;;;;4.47;2.10;;;;;;;25.68;72.82;100761.13;8511487;27;20806;-63
2022/06/18 06:18:48;;;;;;;4.77;1.90;;;;;;;25.79;72.57;100763.13;8517845;27;20391;-63
2022/06/18 06:22:48;;;;;;;3.58;2.00;;;;;;;26.04;71.88;100761.09;8526283;27;20331;-63
2022/06/18 06:26:49;;;;;;;2.80;1.90;;;;;;;26.26;70.73;100745.63;8505722;27;20447;-63
2022/06/18 06:30:50;;;;;;;5.10;2.23;;;;;;;26.44;69.59;100751.09;8521310;27;20284;-63
2022/06/18 06:34:51;;;;;;;4.43;1.80;;;;;;;26.51;71.03;100751.84;8508979;27;20311;-63
2022/06/18 06:38:51;;;;;;;3.73;1.40;;;;;;;26.91;68.35;100753.94;8517267;27;20088;-63
2022/06/18 06:42:53;;;;;;;3.57;1.77;;;;;;;27.02;68.52;100758.66;8502163;27;20287;-63
2022/06/18 06:46:54;;;;;;;2.53;1.77;;;;;;;27.38;67.96;100755.66;8506953;27;20041;-63
2022/06/18 06:50:55;;;;;;;5.43;1.85;;;;;;;27.61;65.58;100758.34;8521817;27;20165;-63
2022/06/18 06:57:21;;;;;;;4.60;1.83;;;;;;;28.08;62.34;100757.13;8498878;27;20384;-63
2022/06/18 06:59:16;;;;;;;4.57;1.90;;;;;;;28.36;60.19;100766.28;8520814;27;20042;-63
2022/06/18 07:03:19;;;;;;;5.13;2.05;;;;;;;28.55;60.32;100775.28;8521887;27;20530;-63
2022/06/18 07:07:20;;;;;;;5.65;1.90;;;;;;;28.27;61.07;100762.22;8523082;27;20042;-63
2022/06/18 07:11:20;;;;;;;3.25;1.60;;;;;;;28.51;59.95;100765.75;8509696;27;20035;-63
2022/06/18 07:15:21;;;;;;;5.05;1.88;;;;;;;28.96;59.59;100766.50;8518616;27;20042;-63
2022/06/18 07:19:21;;;;;;;3.72;1.88;;;;;;;29.21;59.27;100763.31;8517090;27;20049;-63
2022/06/18 07:23:21;;;;;;;5.00;1.70;;;;;;;29.32;59.66;100760.41;8520657;27;20099;-63
2022/06/18 07:27:22;;;;;;;6.03;2.13;;;;;;;29.30;59.38;100754.25;8497043;27;20122;-63
2022/06/18 07:31:27;;;;;;;3.08;2.17;;;;;;;29.55;60.15;100757.38;8510789;27;20268;-63
2022/06/18 07:35:31;;;;;;;3.20;2.13;;;;;;;29.92;58.34;100750.06;8503357;27;20038;-63
2022/06/18 07:39:31;;;;;;;5.28;2.05;;;;;;;29.92;58.71;100755.63;8518186;27;20038;-63
2022/06/18 07:43:36;;;;;;;5.60;2.60;;;;;;;30.01;57.81;100742.09;8494106;27;20043;-63
2022/06/18 07:47:37;;;;;;;5.40;1.95;;;;;;;30.03;58.35;100745.44;8464590;27;20035;-63
2022/06/18 07:51:39;;;;;;;4.13;1.90;;;;;;;30.32;59.00;100739.38;8476622;27;20552;-63
2022/06/18 07:55:39;;;;;;;4.43;1.73;;;;;;;30.37;58.26;100736.63;8487931;27;20445;-63
2022/06/18 07:59:39;;;;;;;7.00;2.03;;;;;;;30.88;58.37;100737.06;8488254;27;20127;-63
2022/06/18 08:03:40;;;;;;;5.60;1.87;;;;;;;31.33;56.45;100726.22;8487209;27;20035;-63
2022/06/18 08:07:40;;;;;;;3.88;2.13;;;;;;;31.35;56.20;100722.03;8488614;27;20035;-63
2022/06/18 08:11:42;;;;;;;5.40;2.00;;;;;;;31.53;56.10;100723.53;8487231;27;20039;-63
2022/06/18 08:15:43;;;;;;;5.22;2.15;;;;;;;31.73;53.07;100718.00;8459752;27;20044;-63
2022/06/18 08:19:43;;;;;;;7.40;2.05;;;;;;;31.82;54.54;100711.66;8462765;27;20083;-63
2022/06/18 08:23:44;;;;;;;6.23;2.10;;;;;;;32.21;54.73;100720.41;8483177;27;20507;-63
2022/06/18 08:27:46;;;;;;;2.65;1.90;;;;;;;32.52;53.24;100710.09;8486668;27;20352;-63
2022/06/18 08:31:46;;;;;;;4.32;2.30;;;;;;;32.69;51.91;100711.50;8487085;27;20107;-63
2022/06/18 08:35:47;;;;;;;3.70;1.90;;;;;;;32.87;52.70;100719.34;8485885;27;20088;-63
2022/06/18 08:39:48;;;;;;;6.40;2.25;;;;;;;32.95;52.15;100713.19;8486947;27;20289;-63
2022/06/18 08:44:11;;;;;;;2.67;1.92;;;;;;;33.25;51.76;100710.31;8468889;27;20408;-63
2022/06/18 08:48:22;;;;;;;;;;;;;;;33.72;48.36;100715.47;8487850;27;20411;-63
2022/06/18 08:53:02;;;;;;;9.82;2.40;;;;;;;33.62;48.85;100710.78;8516672;27;20071;-63
2022/06/18 08:57:27;;;;;;;6.68;1.90;;;;;;;34.06;48.19;100710.00;8453347;27;20032;-63
2022/06/18 09:01:32;;;;;;;8.52;1.95;;;;;;;33.88;48.88;100697.50;8459895;27;20059;-63
2022/06/18 09:06:12;;;;;;;5.78;1.75;;;;;;;34.22;46.76;100686.31;8461038;27;20139;-63
2022/06/18 09:10:36;;;;;;;7.38;2.03;;;;;;;33.91;48.32;100692.13;8490988;27;20420;-63
2022/06/18 09:14:47;;;;;;;7.57;2.05;;;;;;;34.21;46.50;100681.81;8480197;27;20114;-63
2022/06/18 09:18:52;;;;;;;4.63;2.03;;;;;;;34.44;46.28;100672.66;8518245;27;20410;-63
2022/06/18 09:22:56;;;;;;;8.00;1.85;;;;;;;34.83;47.31;100679.06;8506177;27;20543;-63
2022/06/18 09:27:02;;;;;;;;;;;;;;;34.66;45.75;100684.25;8486969;27;20527;-63
2022/06/18 09:31:10;;;;;;;4.32;1.88;;;;;;;34.83;45.77;100676.25;8490385;27;19911;-63
2022/06/18 09:35:18;;;;;;;4.38;2.13;;;;;;;35.03;46.10;100676.03;8493232;27;20570;-63
2022/06/18 09:39:24;;;;;;;4.97;1.92;;;;;;;35.21;46.20;100667.69;8512708;27;20069;-63
2022/06/18 09:43:53;;;;;;;3.85;2.20;;;;;;;35.52;45.18;100668.16;8513719;27;20364;-63
2022/06/18 09:47:54;;;;;;;7.38;2.70;;;;;;;35.21;46.85;100658.41;8512610;27;20031;-63
2022/06/18 09:52:16;;;;;;;6.70;2.40;;;;;;;35.49;46.30;100660.34;8509554;27;20040;-63
2022/06/18 09:56:24;;;;;;;4.72;2.20;;;;;;;35.67;46.12;100651.09;8511973;27;20487;-63
2022/06/18 10:00:30;;;;;;;5.05;2.47;;;;;;;35.16;46.08;100658.50;8485024;27;20034;-63
2022/06/18 10:09:02;;;;;;;6.30;2.25;;;;;;;37.08;44.05;100666.53;8509667;27;20466;-63
2022/06/18 10:13:11;;;;;;;6.82;2.03;;;;;;;37.45;44.60;100647.44;8506543;27;20118;-63
2022/06/18 10:17:52;;;;;;;4.40;2.17;;;;;;;37.60;42.39;100649.09;8493529;27;20118;-63
2022/06/18 10:22:02;;;;;;;3.80;2.25;;;;;;;38.07;41.98;100642.09;8511815;27;20368;-63
2022/06/18 10:26:28;;;;;;;5.60;2.38;;;;;;;37.99;41.97;100634.41;8506645;27;20027;-63
2022/06/18 10:30:45;;;;;;;12.13;2.50;;;;;;;38.63;42.50;100622.63;8490055;27;20685;-63
2022/06/18 10:39:37;;;;;;;12.00;2.55;;;;;;;40.75;39.13;100627.91;8351569;27;20146;-63
2022/06/18 10:44:09;;;;;;;4.05;2.30;;;;;;;40.00;38.80;100630.44;8345762;28;20615;-64
2022/06/18 10:48:23;;;;;;;5.60;2.20;;;;;;;40.19;38.45;100621.63;8348055;28;20044;-64
2022/06/18 10:52:25;;;;;;;7.07;2.33;;;;;;;40.35;38.73;100614.28;8340567;28;20039;-64
2022/06/18 10:56:29;;;;;;;4.38;2.10;;;;;;;40.75;38.54;100630.75;8335648;28;20120;-64
2022/06/18 11:00:29;;;;;;;3.88;2.13;;;;;;;41.51;37.32;100622.25;8340327;28;20434;-64
2022/06/18 11:04:31;;;;;;;8.57;2.40;;;;;;;41.04;38.75;100620.63;8337323;28;20087;-64
2022/06/18 11:08:34;;;;;;;9.40;2.22;;;;;;;40.92;36.35;100609.16;8337406;28;21524;-64
2022/06/18 11:12:38;;;;;;;7.78;2.25;;;;;;;41.73;36.32;100614.25;8342237;28;20508;-64
2022/06/18 11:16:43;;;;;;;7.38;2.47;;;;;;;41.69;35.78;100609.59;8362846;28;20045;-64
2022/06/18 11:21:05;;;;;;;11.80;2.80;;;;;;;41.85;35.69;100607.81;8379551;28;20051;-64
2022/06/18 11:25:40;;;;;;;11.10;2.47;;;;;;;42.28;35.96;100594.06;8378675;28;20120;-63
2022/06/18 11:29:47;;;;;;;6.80;2.33;;;;;;;40.30;36.04;100581.28;8335866;28;20037;-63
2022/06/18 11:33:59;;;;;;;7.20;2.33;;;;;;;42.68;35.56;100589.47;8333863;28;20044;-63
2022/06/18 11:38:35;;;;;;;8.90;2.42;;;;;;;42.56;34.08;100590.28;8345277;28;20102;-64
2022/06/18 11:42:44;;;;;;;10.32;2.42;;;;;;;42.66;35.47;100577.63;8343328;28;20421;-64
2022/06/18 11:46:51;;;;;;;6.63;1.70;;;;;;;42.52;35.64;100560.03;8344103;28;20056;-64
2022/06/18 11:50:59;;;;;;;6.28;2.33;;;;;;;42.26;34.24;100565.97;8315758;28;20041;-64
2022/06/18 11:55:18;;;;;;;13.15;2.90;;;;;;;42.49;34.31;100569.28;8311307;28;20096;-64
2022/06/18 11:59:42;;;;;;;8.85;3.30;;;;;;;41.07;34.72;100557.50;8320930;28;20026;-64
2022/06/18 12:04:09;;;;;;;9.10;2.30;;;;;;;42.40;34.82;100545.78;8354657;28;20052;-64
2022/06/18 12:08:19;;;;;;;8.20;2.53;;;;;;;42.51;34.55;100552.69;8354858;28;20055;-64
2022/06/18 12:12:44;;;;;;;17.23;4.32;;;;;;;40.67;34.54;100543.66;8354847;28;20385;-64
2022/06/18 12:16:49;;;;;;;7.68;2.30;;;;;;;38.27;36.93;100522.94;8354286;28;20098;-63
2022/06/18 12:21:19;;;;;;;11.23;2.80;;;;;;;38.29;38.31;100512.97;8350955;28;20037;-63
2022/06/18 12:25:46;;;;;;;6.85;2.50;;;;;;;38.00;37.46;100508.94;8349325;28;20142;-63
2022/06/18 12:34:18;;;;;;;7.38;2.42;;;;;;;37.67;37.21;100491.44;8409148;27;20386;-63
2022/06/18 12:38:44;;;;;;;9.57;2.85;;;;;;;37.50;38.91;100490.44;8357065;28;20049;-63
2022/06/18 12:43:10;;;;;;;9.20;2.88;;;;;;;37.57;38.15;100473.88;8362351;28;20056;-63
2022/06/18 12:51:39;;;;;;;7.25;2.47;;;;;;;36.63;38.59;100456.81;8400270;27;20360;-63
2022/06/18 12:56:03;;;;;;;9.65;2.92;;;;;;;37.36;39.10;100451.78;8411560;28;20074;-63
2022/06/18 13:00:20;;;;;;;12.00;3.05;;;;;;;37.07;39.58;100448.53;8412804;28;20036;-63
2022/06/18 13:04:54;;;;;;;11.98;2.70;;;;;;;36.91;39.77;100450.03;8412126;28;20033;-63
2022/06/18 13:09:22;;;;;;;6.70;2.10;;;;;;;36.93;39.12;100433.59;8411146;28;20032;-63
2022/06/18 13:13:44;;;;;;;8.90;2.33;;;;;;;36.79;41.17;100444.09;8400130;28;20068;-63
2022/06/18 13:17:51;;;;;;;8.23;2.60;;;;;;;36.76;39.66;100444.72;8386575;28;20519;-63
2022/06/18 13:21:52;;;;;;;8.43;2.45;;;;;;;36.62;40.00;100434.59;8390793;28;20405;-63
2022/06/18 13:34:59;;;;;;;8.75;2.35;;;;;;;36.73;40.23;100413.47;8292452;28;20405;-62
2022/06/18 13:39:28;;;;;;;11.82;2.80;;;;;;;36.06;42.05;100415.13;8282097;28;20125;-63
2022/06/18 13:47:51;;;;;;;14.93;3.17;;;;;;;36.49;41.33;100396.81;8406625;27;20575;-63
2022/06/18 13:52:01;;;;;;;8.23;2.60;;;;;;;36.69;41.16;100384.25;8401320;28;20397;-63
2022/06/18 13:56:17;;;;;;;5.25;2.22;;;;;;;36.88;40.85;100383.00;8410984;28;20047;-63
2022/06/18 14:00:23;;;;;;;5.38;3.00;;;;;;;36.47;40.95;100370.09;8408658;28;20453;-63
2022/06/18 14:04:33;;;;;;;6.93;2.55;;;;;;;36.35;41.96;100373.47;8394007;28;20052;-63
2022/06/18 14:08:46;;;;;;;8.70;2.85;;;;;;;36.13;41.53;100364.84;8391185;28;20044;-63
2022/06/18 14:12:51;;;;;;;10.05;2.83;;;;;;;36.32;41.61;100368.44;8396761;28;20035;-63
2022/06/18 14:17:09;;;;;;;8.85;2.25;;;;;;;35.77;42.78;100349.81;8395475;28;20122;-63
2022/06/18 14:21:10;;;;;;;10.20;2.83;;;;;;;35.70;42.67;100354.97;8406105;28;20123;-63
2022/06/18 14:25:18;;;;;;;5.88;2.80;;;;;;;35.76;42.09;100339.66;8404065;28;20036;-63
2022/06/18 14:29:19;;;;;;;4.22;2.65;;;;;;;35.86;42.27;100336.72;8408744;28;20563;-63
2022/06/18 14:33:47;;;;;;;7.78;2.47;;;;;;;35.58;42.51;100330.16;8403987;28;20044;-63
2022/06/18 14:37:49;;;;;;;12.05;2.50;;;;;;;35.63;42.68;100320.78;8411456;28;20039;-63
2022/06/18 14:42:16;;;;;;;11.02;2.50;;;;;;;35.81;45.01;100311.47;8411732;28;20056;-63
2022/06/18 14:51:03;;;;;;;12.98;2.75;;;;;;;36.30;42.86;100297.50;8375740;27;20790;-63
2022/06/18 14:55:33;;;;;;;13.20;3.08;;;;;;;36.27;43.29;100292.47;8371533;28;20079;-63
2022/06/18 15:00:01;;;;;;;9.77;2.60;;;;;;;36.18;42.21;100285.06;8368714;28;20063;-63
2022/06/18 15:08:23;;;;;;;9.52;3.17;;;;;;;35.87;42.27;100272.78;8390165;27;20042;-63
2022/06/18 15:12:23;;;;;;;13.68;2.90;;;;;;;35.66;42.55;100266.72;8373701;28;20516;-63
2022/06/18 15:16:43;;;;;;;10.88;4.95;;;;;;;35.86;43.06;100252.25;8348516;28;20048;-63
2022/06/18 15:25:30;;;;;;;7.75;2.65;;;;;;;35.96;42.59;100239.94;8387629;27;20865;-62
2022/06/18 15:29:21;;;;;;;12.43;2.80;;;;;;;36.15;43.69;100249.91;8363197;28;20552;-62
2022/06/18 15:33:26;;;;;;;6.40;2.70;;;;;;;36.18;42.11;100237.19;8347992;28;20068;-63
2022/06/18 15:37:26;;;;;;;7.80;2.60;;;;;;;35.98;42.98;100232.84;8370891;28;20045;-63
2022/06/18 15:41:37;;;;;;;10.77;2.83;;;;;;;35.78;43.21;100216.38;8373105;28;20516;-63
2022/06/18 15:45:43;;;;;;;10.10;2.60;;;;;;;35.69;43.15;100223.88;8365154;28;20051;-63
2022/06/18 15:49:46;;;;;;;10.80;3.50;;;;;;;35.96;43.21;100223.88;8372651;28;20509;-63
2022/06/18 15:53:54;;;;;;;7.38;2.65;;;;;;;35.86;43.01;100210.03;8371233;28;20090;-63
2022/06/18 15:57:56;;;;;;;12.90;5.03;;;;;;;35.62;44.55;100206.59;8368824;28;20460;-63
2022/06/18 16:01:57;;;;;;;8.13;2.60;;;;;;;35.67;43.66;100203.66;8369171;28;20048;-63
2022/06/18 16:06:00;;;;;;;13.45;2.92;;;;;;;35.44;44.35;100197.09;8366213;28;20555;-63
2022/06/18 16:10:03;;;;;;;18.45;3.20;;;;;;;35.50;44.38;100187.38;8365428;28;20041;-63
2022/06/18 16:14:24;;;;;;;12.23;3.10;;;;;;;35.69;44.74;100181.66;8362656;28;20086;-63
2022/06/18 16:18:28;;;;;;;10.75;2.90;;;;;;;35.49;44.87;100173.63;8344324;28;20040;-63
2022/06/18 16:22:34;;;;;;;12.20;2.97;;;;;;;35.30;45.65;100181.31;8360610;28;20041;-63
2022/06/18 16:26:34;;;;;;;8.25;2.60;;;;;;;35.26;44.30;100183.94;8358250;28;20037;-63
2022/06/18 16:30:38;;;;;;;9.43;3.20;;;;;;;35.36;44.92;100180.09;8375312;28;20041;-63
2022/06/18 16:39:03;;;;;;;11.70;3.58;;;;;;;35.18;45.77;100172.56;8393905;27;20386;-63
2022/06/18 16:43:11;;;;;;;10.68;2.75;;;;;;;35.11;45.54;100169.31;8382998;28;20120;-63
2022/06/18 16:47:13;;;;;;;7.43;2.80;;;;;;;35.05;46.53;100156.50;8380994;28;20060;-63
2022/06/18 16:51:14;;;;;;;13.85;2.72;;;;;;;35.01;46.30;100158.28;8392292;28;20044;-63
2022/06/18 16:55:17;;;;;;;11.02;2.70;;;;;;;35.00;46.21;100156.63;8410749;28;20167;-63
2022/06/18 16:59:18;;;;;;;11.88;3.03;;;;;;;34.88;45.64;100156.28;8399297;28;20036;-63
2022/06/18 17:03:21;;;;;;;8.60;2.70;;;;;;;34.72;46.18;100146.41;8402004;28;20564;-63
2022/06/18 17:07:24;;;;;;;10.52;2.97;;;;;;;34.60;46.62;100148.88;8377375;28;20044;-63
2022/06/18 17:11:24;;;;;;;16.10;3.08;;;;;;;34.62;47.31;100140.97;8382145;28;20067;-63
2022/06/18 17:15:24;;;;;;;9.27;2.97;;;;;;;34.57;47.75;100132.63;8384137;28;20501;-63
2022/06/18 17:19:25;;;;;;;10.33;3.10;;;;;;;34.53;47.68;100137.19;8396621;28;20270;-63
2022/06/18 17:23:31;;;;;;;6.93;2.78;;;;;;;34.45;47.13;100135.94;8396144;28;20271;-63
2022/06/18 17:31:51;;;;;;;7.72;2.67;;;;;;;34.42;47.02;100110.47;8367750;28;20045;-63
2022/06/18 17:35:55;;;;;;;14.17;3.43;;;;;;;34.31;47.50;100106.09;8368944;28;20186;-63
2022/06/18 17:39:55;;;;;;;10.52;2.67;;;;;;;34.25;47.97;100107.31;8365256;28;20266;-63
2022/06/18 17:43:57;;;;;;;9.23;2.85;;;;;;;34.23;47.38;100101.19;8358964;28;20115;-63
2022/06/18 17:47:58;;;;;;;8.40;3.10;;;;;;;34.15;48.04;100096.28;8348394;28;20087;-63
2022/06/18 17:51:58;;;;;;;13.00;3.00;;;;;;;34.07;48.45;100088.53;8330896;28;20046;-63
2022/06/18 17:55:59;;;;;;;9.95;2.75;;;;;;;33.95;48.59;100083.41;8336121;28;20394;-63
2022/06/18 17:59:59;;;;;;;10.43;3.17;;;;;;;33.78;49.75;100080.25;8332245;28;20434;-63
2022/06/18 18:04:11;;;;;;;12.85;3.20;;;;;;;33.68;51.40;100074.78;8339957;28;20448;-63
2022/06/18 18:08:11;;;;;;;13.20;3.03;;;;;;;33.53;49.39;100073.06;8329460;28;20045;-63
2022/06/18 18:12:15;;;;;;;9.27;3.28;;;;;;;33.42;49.49;100077.13;8334426;28;20126;-63
2022/06/18 18:16:16;;;;;;;11.73;3.20;;;;;;;33.14;52.04;100069.63;8334372;28;20572;-63
2022/06/18 18:20:19;;;;;;;10.52;2.78;;;;;;;33.20;51.03;100068.41;8330617;28;20080;-63
2022/06/18 18:24:20;;;;;;;12.80;2.72;;;;;;;33.09;51.30;100058.50;8331220;28;20417;-63
2022/06/18 18:28:21;;;;;;;8.45;3.10;;;;;;;32.92;52.30;100043.28;8322818;28;20063;-63
2022/06/18 18:32:23;;;;;;;10.13;3.13;;;;;;;32.89;52.40;100052.28;8323463;28;20037;-63
2022/06/18 18:36:23;;;;;;;12.60;3.47;;;;;;;32.76;51.84;100047.34;8336464;28;20056;-63
2022/06/18 18:40:24;;;;;;;8.15;2.92;;;;;;;32.52;53.15;100043.69;8331254;28;20078;-63
2022/06/18 18:44:24;;;;;;;10.13;3.22;;;;;;;32.44;53.46;100035.97;8328858;28;20136;-63
2022/06/18 18:48:25;;;;;;;5.78;2.78;;;;;;;32.14;55.72;100048.25;8321811;28;20494;-63
2022/06/18 18:52:25;;;;;;;11.20;2.75;;;;;;;31.69;57.55;100040.16;8340166;28;20029;-63
2022/06/18 18:56:28;;;;;;;11.68;3.40;;;;;;;31.31;58.50;100038.16;8340381;28;20409;-63
2022/06/18 19:00:29;;;;;;;10.70;3.05;;;;;;;31.26;58.40;100040.97;8320877;28;20087;-63
2022/06/18 19:04:31;;;;;;;13.90;3.72;;;;;;;31.15;58.56;100033.75;8320659;28;20064;-63
2022/06/18 19:08:32;;;;;;;9.02;3.25;;;;;;;30.76;60.25;100030.84;8319589;28;20095;-63
2022/06/18 19:13:05;;;;;;;6.55;3.35;;;;;;;30.70;62.12;100031.13;8327626;28;20083;-63
2022/06/18 19:16:53;;;;;;;9.30;3.65;;;;;;;30.24;61.50;100017.25;8352496;28;20147;-63
2022/06/18 19:20:55;;;;;;;12.82;3.50;;;;;;;30.21;63.53;100012.22;8337301;28;20045;-63
2022/06/18 19:24:56;;;;;;;12.38;3.92;;;;;;;29.56;65.49;100014.97;8346102;28;20033;-63
2022/06/18 19:28:56;;;;;;;10.77;3.77;;;;;;;29.69;64.69;100013.59;8331565;28;20585;-63
2022/06/18 19:32:56;;;;;;;8.03;3.77;;;;;;;29.31;68.36;100011.28;8320563;28;20268;-63
2022/06/18 19:36:57;;;;;;;8.63;3.65;;;;;;;28.62;69.18;100013.50;8320777;28;20283;-63
2022/06/18 19:40:58;;;;;;;9.80;4.22;;;;;;;28.66;70.31;100003.47;8318365;28;20048;-63
2022/06/18 19:44:58;;;;;;;16.75;4.22;;;;;;;28.91;68.56;99998.06;8318948;28;20116;-63
2022/06/18 19:48:58;;;;;;;13.93;4.20;;;;;;;28.75;68.86;99993.50;8319085;28;20037;-63
2022/06/18 19:53:00;;;;;;;15.43;3.92;;;;;;;28.52;70.12;99991.19;8329253;28;20289;-63
2022/06/18 19:57:00;;;;;;;11.82;4.30;;;;;;;28.49;68.21;99988.94;8317202;28;20402;-63